ADDS METAR Data INFO
IDs: Format: Raw Decoded Include TAF

Data at: 0843 UTC 27 Jun 2017

K11R 270835Z AUTO 00000KT 7SM CLR 24/23 A3001 RMK AO2 T02360231
K11R 270815Z AUTO 00000KT 7SM CLR 24/23 A3001 RMK AO2 T02370231
K11R 270755Z AUTO 00000KT 7SM CLR 24/23 A3001 RMK AO2 P0001 T02380232
K11R 270735Z AUTO 00000KT 10SM CLR 24/23 A3002 RMK AO2 T02390232
K11R 270715Z AUTO 00000KT 10SM CLR 24/23 A3003 RMK AO2 T02400233
K11R 270655Z AUTO 00000KT 10SM CLR 24/23 A3003 RMK AO2 T02400232
K11R 270635Z AUTO 00000KT 10SM CLR 24/23 A3003 RMK AO2 T02400231
K11R 270615Z AUTO 00000KT 10SM CLR 24/23 A3003 RMK AO2 T02400231
K11R 270555Z AUTO 00000KT 10SM CLR 24/23 A3004 RMK AO2 T02400230 10275 20240 403250230
K11R 270535Z AUTO 00000KT 10SM CLR 24/23 A3004 RMK AO2 T02410230
K11R 270515Z AUTO 00000KT 10SM CLR 24/23 A3005 RMK AO2 T02400230
K11R 270455Z AUTO 00000KT 10SM SCT017 24/23 A3004 RMK AO2 T02400231
K11R 270435Z AUTO 00000KT 10SM CLR 24/23 A3004 RMK AO2 LTG DSNT SW T02400230
K11R 270415Z AUTO 00000KT 10SM SCT080 24/23 A3004 RMK AO2 LTG DSNT E T02410231
K11R 270355Z AUTO 09003KT 10SM CLR 24/23 A3004 RMK AO2 T02410230
K11R 270335Z AUTO 00000KT 10SM CLR 24/23 A3003 RMK AO2 LTG DSNT E T02420230
K11R 270315Z AUTO 00000KT 10SM CLR 24/23 A3002 RMK AO2 T02440230
K11R 270255Z AUTO 00000KT 10SM CLR 25/23 A3002 RMK AO2 T02460225
K11R 270235Z AUTO 00000KT 10SM CLR 25/23 A3002 RMK AO2 T02500225
K11R 270215Z AUTO 20003KT 10SM CLR 25/22 A3002 RMK AO2 LTG DSNT W T02500224
K11R 270155Z AUTO 15004KT 10SM CLR 25/22 A3001 RMK AO2 T02500222
K11R 270135Z AUTO 15003KT 10SM CLR 25/22 A3000 RMK AO2 T02500221
K11R 270115Z AUTO 14005KT 10SM CLR 25/22 A3001 RMK AO2 T02530221
K11R 270055Z AUTO 14006KT 10SM SCT039 26/22 A3001 RMK AO2 T02560221
K11R 270035Z AUTO 15010KT 10SM SCT029 SCT039 SCT060 26/22 A3002 RMK AO2 T02610222
K11R 270015Z AUTO 14013G17KT 10SM SCT018 BKN027 OVC034 27/23 A3002 RMK AO2 T02670226
K11R 262355Z AUTO 16013G19KT 10SM SCT020 BKN026 BKN041 28/23 A3002 RMK AO2 LTG DSNT SE 60001 T02760231 10325 20257
K11R 262335Z AUTO 11005KT 10SM CLR 29/23 A3000 RMK AO2 T02910227
K11R 262315Z AUTO 10004KT 10SM SCT085 29/23 A3000 RMK AO2 T02900227
K11R 262255Z AUTO 10004KT 10SM SCT120 28/24 A3000 RMK AO2 T02800235
K11R 262235Z AUTO 08007KT 10SM OVC120 27/23 A3000 RMK AO2 T02710230
K11R 262215Z AUTO 08005KT 10SM SCT060 SCT065 OVC110 27/23 A3001 RMK AO2 T02650234
K11R 262155Z AUTO 08004KT 10SM -DZ SCT048 BKN050 OVC070 26/24 A3001 RMK AO2 LTG DSNT E AND SE T02630242
K11R 262135Z AUTO 00000KT 10SM -RA SCT023 BKN048 OVC070 26/25 A3003 RMK AO2 LTG DSNT SE T02630246
K11R 262115Z AUTO 00000KT 10SM -RA SCT038 BKN050 OVC070 26/24 A3003 RMK AO2 T02570236
K11R 262055Z AUTO 16003KT 3SM RA SCT029 BKN038 OVC043 26/23 A3004 RMK AO2 LTG DSNT SE P0001 60001 T02570227
K11R 262035Z AUTO 14011KT 10SM -RA BKN038 BKN049 OVC110 28/22 A3003 RMK AO2 LTG DSNT SE P0001 T02760222
K11R 262015Z AUTO 12010KT 10SM BKN038 BKN046 BKN070 31/22 A3003 RMK AO2 LTG DSNT SE P0001 T03090224
K11R 261955Z AUTO 05004KT 10SM SCT036 32/22 A3003 RMK AO2 LTG DSNT SE T03230223
K11R 261935Z AUTO 02005KT 10SM SCT039 32/23 A3004 RMK AO2 T03200226
K11R 261915Z AUTO 07003KT 10SM SCT095 32/23 A3005 RMK AO2 T03170225
K11R 261855Z AUTO 36004KT 10SM SCT037 SCT070 BKN095 31/23 A3006 RMK AO2 T03130225
K11R 261835Z AUTO 03005KT 10SM SCT032 SCT075 BKN095 30/23 A3007 RMK AO2 T03030231
K11R 261815Z AUTO 00000KT 10SM CLR 31/24 A3008 RMK AO2 T03100235
K11R 261755Z AUTO 07004KT 10SM SCT029 31/23 A3009 RMK AO2 60001 T03080233 10308 20230
K11R 261735Z AUTO 09003KT 10SM BKN027 BKN033 30/23 A3010 RMK AO2 T03010233
K11R 261715Z AUTO 35003KT 10SM BKN025 BKN031 BKN037 30/23 A3010 RMK AO2 T02970231
K11R 261655Z AUTO 00000KT 10SM SCT023 SCT040 SCT048 30/23 A3012 RMK AO2 T03000230
K11R 261635Z AUTO 00000KT 10SM SCT021 SCT030 SCT038 30/24 A3012 RMK AO2 T02950236
K11R 261615Z AUTO 03003KT 10SM SCT017 BKN022 BKN030 28/23 A3012 RMK AO2 T02820233
K11R 261555Z AUTO 00000KT 10SM BKN017 BKN024 28/24 A3012 RMK AO2 T02790241
K11R 261535Z AUTO 00000KT 10SM SCT015 BKN024 28/24 A3013 RMK AO2 T02800241
K11R 261515Z AUTO 00000KT 10SM BKN011 28/24 A3013 RMK AO2 T02750241
K11R 261455Z AUTO 08005KT 10SM BKN011 BKN019 27/24 A3013 RMK AO2 60001 T02670239
K11R 261435Z AUTO 07004KT 10SM SCT009 BKN017 27/24 A3014 RMK AO2 T02650239
K11R 261415Z AUTO 09004KT 10SM SCT009 SCT017 26/24 A3014 RMK AO2 T02580238
K11R 261355Z AUTO 08004KT 10SM BKN007 BKN017 25/24 A3014 RMK AO2 T02500236
K11R 261335Z AUTO 08004KT 10SM SCT007 SCT017 25/24 A3013 RMK AO2 T02460235
K11R 261315Z AUTO 08003KT 10SM CLR 24/24 A3012 RMK AO2 T02420235
K11R 261255Z AUTO 08003KT 10SM SCT016 24/23 A3012 RMK AO2 P0001 T02360230
K11R 261235Z AUTO 06003KT 10SM BKN016 23/23 A3012 RMK AO2 T02330230
K11R 261215Z AUTO 09003KT 10SM CLR 23/23 A3011 RMK AO2 T02310227
K11R 261155Z AUTO 08003KT 7SM CLR 23/23 A3011 RMK AO2 70006 T02300225 10246 20230
K11R 261135Z AUTO 07003KT 10SM CLR 23/23 A3011 RMK AO2 T02300225
K11R 261115Z AUTO 05003KT 10SM CLR 23/23 A3011 RMK AO2 T02300226
K11R 261055Z AUTO 00000KT 10SM SCT100 23/23 A3011 RMK AO2 T02310227
K11R 261035Z AUTO 00000KT 7SM CLR 23/23 A3012 RMK AO2 T02320228
K11R 261015Z AUTO 00000KT 7SM SCT100 23/23 A3012 RMK AO2 T02330230
K11R 260955Z AUTO 36004KT 10SM SCT100 24/23 A3011 RMK AO2 T02350230
K11R 260935Z AUTO 00000KT 7SM SCT100 24/23 A3011 RMK AO2 T02350230
K11R 260915Z AUTO 00000KT 10SM CLR 24/23 A3011 RMK AO2 LTG DSNT E T02360232
K11R 260855Z AUTO 00000KT 7SM CLR 24/23 A3011 RMK AO2 T02360231
K11R 260835Z AUTO 00000KT 10SM SCT100 24/23 A3012 RMK AO2 LTG DSNT W T02370231
K11R 260815Z AUTO 00000KT 10SM SCT100 24/23 A3012 RMK AO2 T02400233
K11R 260755Z AUTO 00000KT 10SM CLR 24/24 A3012 RMK AO2 T02410235
K11R 260735Z AUTO 00000KT 10SM SCT027 SCT095 24/24 A3012 RMK AO2 T02420235
K11R 260715Z AUTO 00000KT 10SM BKN025 OVC095 24/24 A3011 RMK AO2 T02440236
K11R 260655Z AUTO 00000KT 10SM BKN025 OVC095 25/24 A3012 RMK AO2 T02450238
K11R 260635Z AUTO 00000KT 10SM BKN025 BKN030 OVC095 25/24 A3012 RMK AO2 T02450240
K11R 260615Z AUTO 00000KT 10SM SCT030 OVC095 25/24 A3012 RMK AO2 T02450240
K11R 260555Z AUTO 00000KT 10SM SCT027 OVC095 25/24 A3013 RMK AO2 60001 T02460241 10281 20245 403260225
K11R 260535Z AUTO 00000KT 10SM BKN027 OVC095 25/24 A3014 RMK AO2 T02460240
K11R 260515Z AUTO 00000KT 10SM BKN027 BKN034 OVC070 25/24 A3014 RMK AO2 T02480242
K11R 260455Z AUTO 00000KT 10SM SCT027 SCT034 OVC070 25/24 A3014 RMK AO2 T02460240
K11R 260435Z AUTO 00000KT 10SM SCT031 SCT046 OVC070 25/24 A3014 RMK AO2 T02450240
K11R 260415Z AUTO 00000KT 10SM SCT031 SCT039 BKN070 25/24 A3013 RMK AO2 T02460240
K11R 260355Z AUTO 00000KT 10SM SCT034 SCT042 OVC120 25/24 A3013 RMK AO2 T02460240
K11R 260335Z AUTO 00000KT 10SM SCT034 BKN042 OVC120 25/24 A3012 RMK AO2 T02460240
K11R 260315Z AUTO 00000KT 10SM SCT034 OVC080 25/24 A3012 RMK AO2 T02460240
K11R 260255Z AUTO 35004KT 10SM OVC080 25/24 A3012 RMK AO2 P0001 60001 T02470240
K11R 260235Z AUTO 35003KT 10SM SCT034 SCT070 OVC075 25/24 A3012 RMK AO2 P0001 T02470240
K11R 260215Z AUTO 35004KT 10SM SCT021 BKN035 OVC060 25/24 A3012 RMK AO2 LTG DSNT E T02470240
K11R 260155Z AUTO 00000KT 10SM BKN021 BKN031 OVC085 25/24 A3012 RMK AO2 T02470240
K11R 260135Z AUTO 28003KT 10SM -DZ SCT014 BKN019 OVC085 25/24 A3011 RMK AO2 LTG DSNT S THRU W T02480239
K11R 260115Z AUTO 26005KT 10SM -RA SCT009 BKN014 OVC037 25/24 A3012 RMK AO2 LTG DSNT SE AND SW T02510240
K11R 260055Z AUTO 23007KT 10SM VCTS SCT007 BKN037 OVC090 25/24 A3012 RMK AO2 LTG DSNT SW AND W T02490239
K11R 260035Z AUTO 06006KT 7SM -RA SCT035 BKN046 OVC055 25/24 A3009 RMK AO2 LTG DSNT NE AND E T02510238
K11R 260015Z AUTO 06007KT 1 3/4SM +VCTSRA SCT021 BKN031 OVC045 25/24 A3010 RMK AO2 LTG DSNT NE THRU S T02540235 PNO
K11R 252355Z AUTO 08006G15KT 040V100 10SM SCT021 BKN031 OVC050 29/23 A3008 RMK AO2 LTG DSNT E 60001 T02870230 10326 20287
K11R 252335Z AUTO 05003KT 10SM SCT040 BKN050 31/23 A3007 RMK AO2 T03070226
K11R 252315Z AUTO 06005KT 10SM SCT038 32/22 A3007 RMK AO2 T03170222
K11R 252255Z AUTO 08004KT 10SM SCT040 31/23 A3007 RMK AO2 T03130226
K11R 252235Z AUTO 09006KT 10SM SCT040 32/22 A3007 RMK AO2 LTG DSNT S T03230220
K11R 252215Z AUTO 00000KT 10SM CLR 32/21 A3008 RMK AO2 T03220214
K11R 252155Z AUTO 05004KT 10SM CLR 32/22 A3008 RMK AO2 T03170216
K11R 252135Z AUTO 09003KT 10SM CLR 32/21 A3008 RMK AO2 T03170212
K11R 252115Z AUTO 00000KT 10SM CLR 32/21 A3008 RMK AO2 T03200206
K11R 252055Z AUTO 07004KT 10SM SCT039 SCT045 32/21 A3010 RMK AO2 P0001 60001 T03180212


Page loaded:  08:43 UTC  |   01:43 AM Pacific  |   02:43 AM Mountain  |   03:43 AM Central  |   04:43 AM Eastern

 

ADVISORIES

FORECASTS

FORECASTS

OBSERVATIONS

USER TOOLS

ABOUT US